Time;durP1;ratioP1;P1;durP2;ratioP2;P2;SDS_P1;SDS_P2;PMS_P1;PMS_P2;Temp;Humidity;BMP_temperature;BMP_pressure;BME280_temperature;BME280_humidity;BME280_pressure;Samples;Min_cycle;Max_cycle;Signal;HPM_P1;HPM_P2
2022/08/08 00:02:41;;;;;;;7.00;6.40;;;;;;;15.71;100.00;99754.69;5016724;28;20255;-83
2022/08/08 00:05:18;;;;;;;6.17;5.73;;;;;;;15.68;100.00;99747.06;5035175;28;20230;-82
2022/08/08 00:08:08;;;;;;;6.97;6.37;;;;;;;15.67;100.00;99745.44;5021166;28;20233;-82
2022/08/08 00:10:54;;;;;;;6.43;6.00;;;;;;;15.61;100.00;99738.34;5023052;28;20234;-81
2022/08/08 00:13:50;;;;;;;6.87;6.33;;;;;;;15.63;100.00;99745.09;5014703;28;20281;-82
2022/08/08 00:16:55;;;;;;;7.13;6.53;;;;;;;15.71;100.00;99757.38;5029649;28;20226;-82
2022/08/08 00:19:42;;;;;;;6.77;6.17;;;;;;;15.69;100.00;99740.59;5016587;28;20231;-82
2022/08/08 00:22:24;;;;;;;6.17;5.67;;;;;;;15.66;100.00;99739.22;5025034;28;20237;-81
2022/08/08 00:25:03;;;;;;;6.73;6.30;;;;;;;15.68;100.00;99745.16;5036723;28;20283;-82
2022/08/08 00:27:34;;;;;;;6.90;6.33;;;;;;;15.78;100.00;99749.91;5039695;28;20230;-83
2022/08/08 00:30:06;;;;;;;7.07;6.40;;;;;;;15.75;100.00;99755.81;5042630;28;20230;-81
2022/08/08 00:32:43;;;;;;;7.30;6.80;;;;;;;15.77;100.00;99751.78;5047003;28;20236;-81
2022/08/08 00:35:30;;;;;;;6.43;5.93;;;;;;;15.77;100.00;99756.38;5036355;28;20234;-82
2022/08/08 00:38:19;;;;;;;6.60;6.10;;;;;;;15.79;100.00;99746.13;5060735;28;20240;-82
2022/08/08 00:41:16;;;;;;;6.73;6.23;;;;;;;15.81;100.00;99757.53;5023732;28;20230;-81
2022/08/08 00:44:09;;;;;;;6.33;5.83;;;;;;;15.83;100.00;99752.66;5033040;28;20230;-81
2022/08/08 00:47:00;;;;;;;7.60;6.53;;;;;;;15.89;100.00;99750.84;5027737;28;20230;-81
2022/08/08 00:49:51;;;;;;;6.90;6.40;;;;;;;15.88;100.00;99750.03;5019074;28;20235;-81
2022/08/08 00:52:41;;;;;;;6.57;6.17;;;;;;;15.90;100.00;99752.50;5026253;28;20720;-83
2022/08/08 00:55:31;;;;;;;6.70;6.07;;;;;;;15.90;100.00;99757.91;5041068;28;20233;-82
2022/08/08 00:58:42;;;;;;;6.53;6.03;;;;;;;15.91;100.00;99749.53;5037511;28;20300;-82
2022/08/08 01:01:22;;;;;;;7.13;6.53;;;;;;;15.96;100.00;99759.59;5054079;28;20230;-81
2022/08/08 01:04:37;;;;;;;6.50;6.10;;;;;;;16.02;100.00;99753.16;5050005;28;20735;-82
2022/08/08 01:07:53;;;;;;;6.30;5.80;;;;;;;15.99;100.00;99745.56;5044348;28;20252;-82
2022/08/08 01:10:42;;;;;;;6.33;5.87;;;;;;;16.03;100.00;99747.53;5057619;28;20234;-82
2022/08/08 01:13:39;;;;;;;6.43;5.93;;;;;;;16.04;100.00;99741.06;5040277;28;20250;-82
2022/08/08 01:16:34;;;;;;;6.37;5.97;;;;;;;16.12;100.00;99747.88;5032086;28;20232;-81
2022/08/08 01:19:32;;;;;;;6.50;6.00;;;;;;;16.07;100.00;99751.34;5077942;28;20229;-81
2022/08/08 01:22:33;;;;;;;6.00;5.60;;;;;;;16.10;100.00;99750.00;5043610;28;20312;-81
2022/08/08 01:25:19;;;;;;;5.60;5.30;;;;;;;16.09;100.00;99753.81;5052830;28;20309;-82
2022/08/08 01:28:19;;;;;;;5.97;5.47;;;;;;;16.06;100.00;99747.00;5042910;28;20324;-81
2022/08/08 01:31:22;;;;;;;5.87;5.40;;;;;;;16.04;100.00;99746.47;5044083;28;20330;-81
2022/08/08 01:34:42;;;;;;;5.53;5.03;;;;;;;16.07;100.00;99739.72;5042363;28;20225;-82
2022/08/08 01:38:11;;;;;;;5.20;4.90;;;;;;;16.12;100.00;99742.47;5044016;28;20262;-84
2022/08/08 01:41:04;;;;;;;5.10;4.80;;;;;;;16.15;100.00;99750.91;5008233;28;20313;-82
2022/08/08 01:43:46;;;;;;;5.20;4.90;;;;;;;16.16;100.00;99760.66;5010573;28;20242;-85
2022/08/08 01:47:00;;;;;;;5.67;5.17;;;;;;;16.18;100.00;99755.81;5020966;28;20301;-82
2022/08/08 01:50:01;;;;;;;5.17;4.87;;;;;;;16.14;100.00;99756.56;5026654;28;20316;-82
2022/08/08 01:52:32;;;;;;;5.17;4.87;;;;;;;16.16;100.00;99754.41;5044136;28;20712;-82
2022/08/08 01:55:19;;;;;;;5.70;5.20;;;;;;;16.18;100.00;99761.22;5046117;28;20237;-82
2022/08/08 01:58:20;;;;;;;5.47;5.07;;;;;;;16.19;100.00;99753.94;5060984;28;20241;-82
2022/08/08 02:01:19;;;;;;;5.30;4.90;;;;;;;16.21;100.00;99759.88;5036019;28;20233;-82
2022/08/08 02:04:09;;;;;;;5.07;4.77;;;;;;;16.19;100.00;99753.94;5046927;28;20244;-82
2022/08/08 02:07:00;;;;;;;5.33;4.83;;;;;;;16.17;100.00;99758.75;5033552;28;20228;-83
2022/08/08 02:09:50;;;;;;;5.33;4.83;;;;;;;16.17;100.00;99765.00;5044387;28;20226;-83
2022/08/08 02:12:51;;;;;;;5.27;4.80;;;;;;;16.18;100.00;99757.69;5034516;28;20230;-82
2022/08/08 02:15:35;;;;;;;5.30;5.00;;;;;;;16.13;100.00;99752.22;5050116;28;20471;-82
2022/08/08 02:18:12;;;;;;;5.67;5.17;;;;;;;16.09;100.00;99754.63;5048165;28;20237;-82
2022/08/08 02:24:29;;;;;;;5.67;5.27;;;;;;;16.03;100.00;99763.75;4953222;28;20241;-82
2022/08/08 02:27:10;;;;;;;5.50;5.00;;;;;;;16.02;100.00;99767.50;4936715;28;20232;-83
2022/08/08 02:30:03;;;;;;;5.70;5.30;;;;;;;15.98;100.00;99766.38;5010551;28;20308;-82
2022/08/08 02:32:55;;;;;;;6.17;5.60;;;;;;;15.94;100.00;99759.03;5040215;28;20251;-82
2022/08/08 02:35:36;;;;;;;6.07;5.57;;;;;;;15.91;100.00;99765.72;5059689;28;20225;-83
2022/08/08 02:38:44;;;;;;;5.60;5.20;;;;;;;15.83;100.00;99758.88;5081407;28;21033;-83
2022/08/08 02:41:29;;;;;;;5.77;5.27;;;;;;;15.75;100.00;99753.94;5053677;28;20816;-84
2022/08/08 02:45:02;;;;;;;5.30;4.90;;;;;;;15.69;100.00;99768.41;5053118;28;20232;-83
2022/08/08 02:47:46;;;;;;;5.87;5.37;;;;;;;15.66;100.00;99768.13;5047799;28;20233;-82
2022/08/08 02:50:46;;;;;;;6.17;5.67;;;;;;;15.63;100.00;99769.41;5054541;28;20580;-83
2022/08/08 02:53:28;;;;;;;5.50;5.10;;;;;;;15.57;100.00;99767.72;5052535;28;20252;-82
2022/08/08 02:56:22;;;;;;;6.00;5.60;;;;;;;15.51;100.00;99766.00;5056550;28;20682;-82
2022/08/08 02:59:26;;;;;;;5.90;5.40;;;;;;;15.50;100.00;99767.03;5039093;28;20261;-81
2022/08/08 03:02:39;;;;;;;5.97;5.30;;;;;;;15.49;100.00;99764.59;5057823;28;20248;-82
2022/08/08 03:05:22;;;;;;;5.97;4.97;;;;;;;15.50;100.00;99756.22;5036309;28;20236;-82
2022/08/08 03:08:29;;;;;;;5.57;5.17;;;;;;;15.47;100.00;99756.75;5039595;28;20782;-82
2022/08/08 03:11:24;;;;;;;5.67;5.23;;;;;;;15.44;100.00;99754.56;5030262;28;20710;-83
2022/08/08 03:14:50;;;;;;;5.77;5.27;;;;;;;15.37;100.00;99767.38;5048515;28;20738;-82
2022/08/08 03:18:13;;;;;;;5.73;5.30;;;;;;;15.33;100.00;99771.66;5037756;28;20276;-83
2022/08/08 03:20:49;;;;;;;5.50;5.10;;;;;;;15.36;100.00;99779.25;5017662;28;20259;-84
2022/08/08 03:23:29;;;;;;;6.03;5.53;;;;;;;15.36;100.00;99773.84;5047514;28;20226;-83
2022/08/08 03:26:21;;;;;;;5.60;5.20;;;;;;;15.38;100.00;99772.56;5050580;28;20234;-82
2022/08/08 03:28:53;;;;;;;5.47;5.10;;;;;;;15.42;100.00;99771.00;5036525;28;20283;-83
2022/08/08 03:34:27;;;;;;;5.67;5.17;;;;;;;15.47;100.00;99780.22;5049198;28;20657;-82
2022/08/08 03:36:54;;;;;;;5.40;4.93;;;;;;;15.55;100.00;99786.03;5052077;28;20282;-83
2022/08/08 03:39:21;;;;;;;5.00;4.67;;;;;;;15.56;100.00;99776.06;5049444;28;20320;-82
2022/08/08 03:41:48;;;;;;;5.27;4.87;;;;;;;15.57;100.00;99772.31;5049049;28;20229;-83
2022/08/08 03:44:38;;;;;;;5.33;4.93;;;;;;;15.56;100.00;99767.97;5050424;28;20232;-84
2022/08/08 03:47:10;;;;;;;5.20;4.80;;;;;;;15.56;100.00;99767.97;5050463;28;20666;-82
2022/08/08 03:49:49;;;;;;;5.70;5.20;;;;;;;15.58;100.00;99765.84;5035649;28;20229;-83
2022/08/08 03:52:30;;;;;;;5.00;4.60;;;;;;;15.62;100.00;99772.38;5049966;28;20225;-83
2022/08/08 03:55:00;;;;;;;5.40;5.00;;;;;;;15.68;100.00;99779.47;5049341;28;20229;-83
2022/08/08 03:57:50;;;;;;;5.10;4.70;;;;;;;15.65;100.00;99775.41;5050220;28;20225;-83
2022/08/08 04:00:37;;;;;;;5.10;4.70;;;;;;;15.76;100.00;99781.75;5051342;28;20283;-82
2022/08/08 04:03:34;;;;;;;5.27;4.87;;;;;;;15.80;100.00;99782.88;5041706;28;20700;-83
2022/08/08 04:06:20;;;;;;;5.23;4.83;;;;;;;15.81;100.00;99787.22;5035437;28;20229;-81
2022/08/08 04:08:48;;;;;;;5.33;4.93;;;;;;;15.81;100.00;99788.06;5055506;28;20224;-82
2022/08/08 04:11:21;;;;;;;5.30;4.87;;;;;;;15.94;100.00;99791.44;5036381;28;20249;-83
2022/08/08 04:13:51;;;;;;;5.27;4.77;;;;;;;15.85;100.00;99791.88;5052307;28;20240;-82
2022/08/08 04:16:39;;;;;;;5.10;4.73;;;;;;;15.87;100.00;99786.22;5038944;28;20224;-82
2022/08/08 04:19:09;;;;;;;5.17;4.67;;;;;;;15.85;100.00;99783.78;5017493;28;20883;-83
2022/08/08 04:21:50;;;;;;;5.10;4.70;;;;;;;15.97;100.00;99794.47;5053183;28;20240;-81
2022/08/08 04:24:17;;;;;;;4.83;4.40;;;;;;;16.07;100.00;99789.19;5050873;28;20321;-82
2022/08/08 04:26:55;;;;;;;5.40;4.90;;;;;;;16.16;100.00;99786.84;5050229;28;20271;-82
2022/08/08 04:29:26;;;;;;;5.23;4.83;;;;;;;16.26;100.00;99784.28;5036301;28;20275;-82
2022/08/08 04:32:05;;;;;;;5.03;4.47;;;;;;;16.34;100.00;99780.31;5050091;28;20226;-82
2022/08/08 04:34:33;;;;;;;5.40;4.30;;;;;;;16.44;100.00;99789.34;5064733;28;20218;-82
2022/08/08 04:37:21;;;;;;;4.80;4.50;;;;;;;16.58;100.00;99801.44;5050248;28;20772;-82
2022/08/08 04:40:02;;;;;;;4.77;4.37;;;;;;;16.73;100.00;99801.59;5056349;28;20790;-83
2022/08/08 04:42:44;;;;;;;4.60;4.30;;;;;;;16.90;100.00;99806.06;5068332;28;20228;-82
2022/08/08 04:45:25;;;;;;;4.80;4.40;;;;;;;17.13;100.00;99811.97;5050662;28;20296;-81
2022/08/08 04:47:55;;;;;;;4.53;4.13;;;;;;;17.35;100.00;99816.50;5052795;28;20248;-80
2022/08/08 04:50:23;;;;;;;4.53;4.13;;;;;;;17.57;100.00;99809.06;5048420;28;20655;-81
2022/08/08 04:52:55;;;;;;;4.27;3.97;;;;;;;17.85;100.00;99807.91;5047005;28;20599;-81
2022/08/08 04:55:32;;;;;;;4.03;3.60;;;;;;;18.10;100.00;99801.81;5049120;28;20230;-82
2022/08/08 04:58:19;;;;;;;3.90;3.60;;;;;;;18.45;100.00;99810.06;5045164;28;20234;-82
2022/08/08 05:00:48;;;;;;;4.13;3.80;;;;;;;18.63;100.00;99806.88;5037166;28;20296;-82
2022/08/08 05:03:17;;;;;;;3.90;3.60;;;;;;;18.89;100.00;99811.31;5045079;28;20233;-81
2022/08/08 05:06:04;;;;;;;4.10;3.50;;;;;;;19.09;100.00;99815.91;5061667;28;20257;-82
2022/08/08 05:08:45;;;;;;;3.60;3.30;;;;;;;19.20;100.00;99822.19;5040430;28;20222;-81
2022/08/08 05:11:19;;;;;;;3.57;3.27;;;;;;;19.38;100.00;99813.47;5042938;28;20230;-81
2022/08/08 05:13:53;;;;;;;4.53;3.10;;;;;;;19.52;100.00;99811.03;5049122;28;20234;-82
2022/08/08 05:16:29;;;;;;;4.00;3.30;;;;;;;19.43;100.00;99807.22;5051078;28;20234;-82
2022/08/08 05:19:17;;;;;;;4.40;3.30;;;;;;;19.55;100.00;99811.31;5055211;28;20261;-81
2022/08/08 05:22:06;;;;;;;3.63;3.10;;;;;;;19.66;100.00;99812.13;5036063;28;20239;-81
2022/08/08 05:24:35;;;;;;;3.03;2.73;;;;;;;19.68;100.00;99809.94;5042614;28;20715;-81
2022/08/08 05:27:03;;;;;;;4.73;2.80;;;;;;;19.67;100.00;99811.84;5049896;28;20241;-82
2022/08/08 05:29:31;;;;;;;3.07;2.67;;;;;;;19.75;100.00;99818.63;5045634;28;20241;-82
2022/08/08 05:32:06;;;;;;;2.70;2.50;;;;;;;19.83;100.00;99823.50;5036095;28;20236;-82
2022/08/08 05:34:40;;;;;;;5.53;2.60;;;;;;;19.81;100.00;99820.25;5049724;28;20228;-82
2022/08/08 05:37:11;;;;;;;2.93;2.50;;;;;;;19.89;96.56;99818.84;5038110;28;20247;-81
2022/08/08 05:39:50;;;;;;;4.53;2.70;;;;;;;19.70;98.72;99824.88;5048593;28;20236;-81
2022/08/08 05:42:23;;;;;;;4.80;2.57;;;;;;;19.81;96.75;99822.16;5034967;28;20247;-83
2022/08/08 05:44:52;;;;;;;3.23;2.30;;;;;;;19.91;97.14;99820.22;5046743;28;20233;-83
2022/08/08 05:47:22;;;;;;;3.70;2.50;;;;;;;20.01;93.70;99825.66;5051887;28;20639;-82
2022/08/08 05:49:57;;;;;;;2.50;2.30;;;;;;;20.00;92.42;99829.44;5050868;28;20709;-82
2022/08/08 05:52:27;;;;;;;2.87;2.17;;;;;;;20.22;86.31;99834.53;5037122;28;20247;-81
2022/08/08 05:54:59;;;;;;;2.63;2.40;;;;;;;20.34;84.36;99829.63;5048046;28;20301;-81
2022/08/08 05:57:38;;;;;;;2.50;2.30;;;;;;;20.41;84.01;99821.97;5043358;28;20230;-82
2022/08/08 06:00:30;;;;;;;2.10;1.97;;;;;;;20.57;81.76;99839.88;5042670;28;20908;-81
2022/08/08 06:03:10;;;;;;;3.30;2.50;;;;;;;20.49;77.97;99826.81;5049682;28;20773;-81
2022/08/08 06:05:55;;;;;;;2.53;2.03;;;;;;;20.45;80.98;99831.19;5044447;28;20320;-83
2022/08/08 06:08:34;;;;;;;3.10;2.00;;;;;;;20.51;78.16;99849.16;5036237;28;20277;-83
2022/08/08 06:11:07;;;;;;;2.33;2.00;;;;;;;20.58;76.42;99835.22;5031979;28;20236;-82
2022/08/08 06:13:39;;;;;;;2.50;2.40;;;;;;;20.59;77.63;99837.66;5027044;28;20240;-82
2022/08/08 06:16:16;;;;;;;3.60;2.37;;;;;;;20.58;76.98;99851.53;5036666;28;20239;-81
2022/08/08 06:19:00;;;;;;;3.87;2.20;;;;;;;20.81;73.20;99852.81;5037302;28;20273;-81
2022/08/08 06:21:32;;;;;;;2.90;1.93;;;;;;;20.95;72.40;99848.38;5047327;28;20250;-81
2022/08/08 06:24:24;;;;;;;2.23;1.90;;;;;;;20.94;70.79;99860.34;5049074;28;20598;-82
2022/08/08 06:27:03;;;;;;;2.70;1.83;;;;;;;21.00;69.75;99853.75;5061473;28;20235;-82
2022/08/08 06:29:47;;;;;;;2.13;1.90;;;;;;;21.27;70.32;99870.50;5049803;28;20245;-82
2022/08/08 06:32:43;;;;;;;2.53;2.23;;;;;;;21.47;67.92;99869.50;5068152;28;20240;-81
2022/08/08 06:35:17;;;;;;;2.97;1.90;;;;;;;21.51;68.20;99868.66;5068549;28;20238;-81
2022/08/08 06:38:05;;;;;;;2.10;1.90;;;;;;;21.51;67.77;99873.28;5054064;28;20241;-82
2022/08/08 06:40:40;;;;;;;3.40;2.10;;;;;;;21.45;65.93;99877.19;5045795;28;20231;-81
2022/08/08 06:43:21;;;;;;;2.80;1.97;;;;;;;21.56;66.18;99869.75;5036447;28;20260;-82
2022/08/08 06:46:03;;;;;;;2.30;2.10;;;;;;;21.79;65.86;99868.97;5044787;28;20311;-83
2022/08/08 06:48:35;;;;;;;3.17;1.93;;;;;;;21.77;63.59;99872.00;5050356;28;21279;-81
2022/08/08 06:51:04;;;;;;;3.47;2.00;;;;;;;21.88;64.53;99873.50;5022598;28;20647;-82
2022/08/08 06:53:36;;;;;;;2.60;2.00;;;;;;;21.83;64.09;99873.56;5007890;28;20231;-81
2022/08/08 06:56:18;;;;;;;2.17;1.80;;;;;;;21.74;63.06;99874.47;5029570;28;20231;-81
2022/08/08 06:58:49;;;;;;;2.27;1.73;;;;;;;22.13;62.12;99882.56;5022730;28;20317;-81
2022/08/08 07:01:17;;;;;;;2.67;1.60;;;;;;;22.29;59.71;99881.31;5025566;28;20345;-81
2022/08/08 07:04:23;;;;;;;2.60;1.50;;;;;;;22.56;57.40;99884.25;5017115;28;20241;-83
2022/08/08 07:07:10;;;;;;;2.07;1.60;;;;;;;22.85;56.87;99886.09;5013790;28;20359;-82
2022/08/08 07:09:57;;;;;;;2.27;1.80;;;;;;;23.22;56.28;99884.19;5028246;28;20722;-82
2022/08/08 07:12:44;;;;;;;2.40;1.73;;;;;;;23.73;54.16;99879.84;5014848;28;20230;-82
2022/08/08 07:15:35;;;;;;;3.88;1.98;;;;;;;23.72;54.05;99884.47;4998872;28;20226;-81
2022/08/08 07:18:50;;;;;;;1.90;1.70;;;;;;;24.28;50.70;99897.19;5009975;28;20230;-82
2022/08/08 07:21:36;;;;;;;3.30;1.83;;;;;;;24.61;48.77;99893.22;5027966;28;20313;-81
2022/08/08 07:24:07;;;;;;;2.72;1.70;;;;;;;24.76;48.66;99890.16;5013421;28;20234;-80
2022/08/08 07:27:04;;;;;;;4.78;1.90;;;;;;;24.31;48.30;99891.91;5024283;28;20238;-81
2022/08/08 07:29:36;;;;;;;1.88;1.70;;;;;;;24.29;48.94;99888.66;5010616;28;20731;-81
2022/08/08 07:32:23;;;;;;;2.85;1.70;;;;;;;24.27;50.15;99885.41;5031136;28;20227;-81
2022/08/08 07:34:52;;;;;;;4.03;1.80;;;;;;;24.09;50.84;99894.50;5046302;28;20712;-81
2022/08/08 07:37:30;;;;;;;2.13;1.90;;;;;;;24.00;52.53;99899.03;5035303;28;20325;-81
2022/08/08 07:40:22;;;;;;;3.55;1.70;;;;;;;23.91;52.96;99903.59;5040280;28;20809;-81
2022/08/08 07:43:02;;;;;;;4.82;1.80;;;;;;;24.09;52.15;99900.78;5032550;28;20241;-82
2022/08/08 07:45:37;;;;;;;2.03;1.83;;;;;;;24.27;54.35;99901.03;5008555;28;20225;-81
2022/08/08 07:48:25;;;;;;;1.80;1.70;;;;;;;24.30;53.18;99905.91;5037938;28;20241;-81
2022/08/08 07:50:59;;;;;;;2.88;1.90;;;;;;;24.21;52.25;99913.19;5036938;28;20593;-82
2022/08/08 07:53:43;;;;;;;1.52;1.40;;;;;;;24.49;49.52;99914.84;5049369;28;20236;-82
2022/08/08 07:56:43;;;;;;;2.30;1.55;;;;;;;24.49;50.49;99912.09;5046007;28;20714;-83
2022/08/08 07:59:13;;;;;;;1.90;1.70;;;;;;;24.25;49.71;99915.03;5047363;28;20236;-81
2022/08/08 08:01:51;;;;;;;2.88;1.80;;;;;;;24.19;49.67;99912.69;5032826;28;20247;-81
2022/08/08 08:04:42;;;;;;;2.28;1.50;;;;;;;23.50;53.48;99920.69;5034670;28;20726;-81
2022/08/08 08:07:09;;;;;;;3.22;1.60;;;;;;;23.37;55.06;99947.94;5045875;28;20382;-81
2022/08/08 08:09:38;;;;;;;2.70;1.60;;;;;;;22.95;56.09;99966.00;5032955;28;20226;-82
2022/08/08 08:12:12;;;;;;;3.53;1.80;;;;;;;22.42;60.22;99967.94;5045841;28;20239;-82
2022/08/08 08:15:05;;;;;;;1.95;1.75;;;;;;;21.95;61.72;99960.50;5048059;28;20224;-81
2022/08/08 08:17:40;;;;;;;3.53;1.80;;;;;;;21.37;64.69;99945.94;5047699;28;20290;-81
2022/08/08 08:20:19;;;;;;;3.22;2.15;;;;;;;20.75;68.92;99916.53;5029892;28;20226;-82
2022/08/08 08:22:47;;;;;;;3.10;2.10;;;;;;;20.44;73.97;99899.50;5029270;28;20252;-82
2022/08/08 08:25:14;;;;;;;2.73;1.77;;;;;;;20.06;82.26;99900.97;5046359;28;20228;-81
2022/08/08 08:27:45;;;;;;;1.97;1.87;;;;;;;19.75;87.26;99897.44;5047719;28;20347;-81
2022/08/08 08:30:13;;;;;;;2.87;2.00;;;;;;;19.34;93.35;99897.44;5047174;28;20309;-80
2022/08/08 08:32:42;;;;;;;2.30;2.10;;;;;;;18.81;100.00;99906.00;5047328;28;20303;-82
2022/08/08 08:35:19;;;;;;;3.50;2.60;;;;;;;18.56;100.00;99905.91;5031525;28;20234;-81
2022/08/08 08:37:58;;;;;;;5.60;2.70;;;;;;;18.42;100.00;99921.84;5045581;28;20226;-81
2022/08/08 08:40:49;;;;;;;3.73;2.67;;;;;;;18.23;100.00;99918.75;5029570;28;20231;-82
2022/08/08 08:43:18;;;;;;;3.33;2.50;;;;;;;18.01;100.00;99908.03;5048213;28;20239;-81
2022/08/08 08:45:48;;;;;;;2.87;2.57;;;;;;;17.91;100.00;99905.25;5049545;28;20244;-81
2022/08/08 08:48:23;;;;;;;3.10;2.80;;;;;;;17.83;100.00;99902.19;5030360;28;20267;-81
2022/08/08 08:50:53;;;;;;;4.47;2.83;;;;;;;17.81;100.00;99918.75;5030208;28;20281;-80
2022/08/08 08:53:21;;;;;;;5.00;3.00;;;;;;;17.81;100.00;99926.03;5079199;28;20236;-81
2022/08/08 08:56:15;;;;;;;5.57;3.30;;;;;;;17.94;100.00;99937.25;5045841;28;20240;-80
2022/08/08 08:58:51;;;;;;;3.73;3.03;;;;;;;17.83;100.00;99940.97;5031949;28;20236;-78
2022/08/08 09:01:26;;;;;;;3.23;2.90;;;;;;;17.85;100.00;99941.53;5030474;28;20318;-78
2022/08/08 09:03:57;;;;;;;3.60;3.20;;;;;;;17.94;100.00;99937.25;5030593;28;20658;-78
2022/08/08 09:06:31;;;;;;;3.23;2.90;;;;;;;18.11;100.00;99939.81;5047849;28;20694;-79
2022/08/08 09:09:09;;;;;;;4.80;3.47;;;;;;;18.32;100.00;99938.03;5032016;28;20250;-78
2022/08/08 09:12:04;;;;;;;4.10;3.70;;;;;;;18.57;100.00;99940.13;5033244;28;20309;-78
2022/08/08 09:14:37;;;;;;;3.80;3.27;;;;;;;18.85;100.00;99939.66;5045675;28;20223;-78
2022/08/08 09:17:10;;;;;;;3.50;3.20;;;;;;;19.09;100.00;99937.28;5047600;28;20229;-77
2022/08/08 09:19:46;;;;;;;3.60;3.30;;;;;;;19.39;100.00;99936.56;5077033;28;20232;-78
2022/08/08 09:22:36;;;;;;;4.33;3.77;;;;;;;19.77;100.00;99946.94;5066229;28;20700;-78
2022/08/08 09:25:07;;;;;;;4.73;3.20;;;;;;;20.03;100.00;99956.69;5042286;28;20247;-79
2022/08/08 09:27:38;;;;;;;3.40;3.07;;;;;;;20.37;100.00;99948.78;5077056;28;20236;-78
2022/08/08 09:30:27;;;;;;;5.37;3.30;;;;;;;20.51;100.00;99951.75;5046746;28;20240;-79
2022/08/08 09:32:56;;;;;;;3.67;3.37;;;;;;;20.65;100.00;99947.34;5076375;28;20366;-79
2022/08/08 09:35:45;;;;;;;3.57;3.20;;;;;;;20.84;100.00;99948.38;5073538;28;20235;-78
2022/08/08 09:38:24;;;;;;;5.53;3.20;;;;;;;21.32;100.00;99959.59;5047247;28;20222;-78
2022/08/08 09:40:55;;;;;;;3.10;2.90;;;;;;;21.86;100.00;99948.53;5045460;28;20237;-78
2022/08/08 09:43:29;;;;;;;3.27;2.97;;;;;;;22.54;100.00;99964.81;5041490;28;20265;-78
2022/08/08 09:46:16;;;;;;;2.87;2.63;;;;;;;23.03;98.55;99950.88;5047485;28;20240;-79
2022/08/08 09:48:58;;;;;;;3.17;2.87;;;;;;;23.51;87.52;99951.59;5046330;28;20225;-79
2022/08/08 09:51:48;;;;;;;3.20;2.90;;;;;;;23.85;80.33;99954.03;5036619;28;20228;-80
2022/08/08 09:54:41;;;;;;;4.75;2.60;;;;;;;23.53;84.21;99949.34;5042922;28;20233;-79
2022/08/08 09:57:10;;;;;;;4.65;2.60;;;;;;;23.75;79.37;99954.22;5048012;28;20241;-79
2022/08/08 09:59:42;;;;;;;2.72;2.53;;;;;;;23.74;79.32;99944.38;5045372;28;20715;-79
2022/08/08 10:02:43;;;;;;;3.10;2.70;;;;;;;23.87;81.61;99952.63;5043276;28;20236;-80
2022/08/08 10:05:18;;;;;;;3.40;2.55;;;;;;;24.08;77.67;99947.59;5048579;28;20700;-79
2022/08/08 10:07:51;;;;;;;3.20;2.60;;;;;;;24.09;77.23;99960.19;5044444;28;20712;-80
2022/08/08 10:10:35;;;;;;;2.70;2.50;;;;;;;24.30;73.94;99958.75;5048404;28;20229;-81
2022/08/08 10:13:24;;;;;;;3.90;2.80;;;;;;;24.48;72.43;99957.03;5035444;28;20359;-81
2022/08/08 10:16:02;;;;;;;3.33;2.50;;;;;;;24.41;70.47;99962.91;5045359;28;20312;-80
2022/08/08 10:18:35;;;;;;;2.90;2.58;;;;;;;24.03;71.07;99959.44;5043052;28;20861;-81
2022/08/08 10:21:07;;;;;;;3.15;2.45;;;;;;;23.95;74.78;99968.34;5045970;28;20222;-79
2022/08/08 10:23:52;;;;;;;2.80;2.42;;;;;;;23.82;76.39;99971.84;5045135;28;20236;-79
2022/08/08 10:26:30;;;;;;;2.78;2.58;;;;;;;23.65;81.10;99972.41;5042598;28;20284;-79
2022/08/08 10:29:21;;;;;;;2.90;2.70;;;;;;;23.36;82.22;99979.09;5043266;28;20313;-81
2022/08/08 10:34:49;;;;;;;2.92;2.70;;;;;;;22.73;81.05;99968.44;5045960;28;20233;-80
2022/08/08 10:37:26;;;;;;;2.83;2.60;;;;;;;22.44;86.91;99971.22;5043767;28;20241;-80
2022/08/08 10:39:57;;;;;;;2.75;2.55;;;;;;;22.26;87.95;99967.28;5046933;28;20248;-81
2022/08/08 10:42:32;;;;;;;3.58;2.30;;;;;;;22.08;90.74;99965.28;5042137;28;20233;-80
2022/08/08 10:45:01;;;;;;;3.05;2.60;;;;;;;21.93;85.95;99968.13;5040622;28;20234;-79
2022/08/08 10:47:35;;;;;;;3.53;2.40;;;;;;;21.74;92.18;99967.97;5043147;28;20715;-79
2022/08/08 10:50:13;;;;;;;3.27;2.50;;;;;;;21.83;95.86;99960.03;5045339;28;20695;-79
2022/08/08 10:52:41;;;;;;;2.87;2.60;;;;;;;22.02;92.24;99961.00;5043480;28;20240;-79
2022/08/08 10:55:16;;;;;;;3.20;2.63;;;;;;;22.23;90.64;99970.59;5047539;28;20769;-80
2022/08/08 10:58:06;;;;;;;2.58;2.30;;;;;;;22.68;83.77;99963.00;5045143;28;20229;-82
2022/08/08 11:00:34;;;;;;;2.65;2.40;;;;;;;23.01;82.46;99974.91;5027991;28;20229;-79
2022/08/08 11:03:15;;;;;;;2.53;2.33;;;;;;;23.09;77.12;99969.66;5044370;28;20313;-79
2022/08/08 11:05:49;;;;;;;3.25;2.40;;;;;;;23.08;75.82;99973.47;5046044;28;20323;-79
2022/08/08 11:08:22;;;;;;;2.80;2.20;;;;;;;22.98;76.57;99972.78;5044013;28;20237;-80
2022/08/08 11:11:09;;;;;;;2.45;2.05;;;;;;;23.06;77.42;99959.28;5046202;28;20353;-80
2022/08/08 11:13:59;;;;;;;3.45;2.20;;;;;;;22.91;75.88;99959.47;5045425;28;20240;-80
2022/08/08 11:16:28;;;;;;;4.25;2.10;;;;;;;22.73;77.96;99955.59;5045015;28;20283;-80
2022/08/08 11:19:00;;;;;;;3.50;2.20;;;;;;;22.58;77.33;99957.69;5042570;28;20225;-81
2022/08/08 11:21:39;;;;;;;2.17;1.83;;;;;;;22.35;81.76;99962.00;5046805;28;20235;-81
2022/08/08 11:24:08;;;;;;;2.45;2.20;;;;;;;22.27;81.62;99955.28;5047866;28;20622;-81
2022/08/08 11:26:39;;;;;;;3.33;2.28;;;;;;;22.13;84.72;99959.78;5047448;28;20217;-80
2022/08/08 11:29:25;;;;;;;3.17;1.90;;;;;;;22.12;79.81;99960.88;5047605;28;20570;-80
2022/08/08 11:32:13;;;;;;;2.72;2.00;;;;;;;22.13;80.23;99965.22;5048460;28;20238;-79
2022/08/08 11:34:42;;;;;;;3.05;1.90;;;;;;;22.07;80.20;99960.13;5045271;28;20703;-80
2022/08/08 11:37:31;;;;;;;2.28;1.98;;;;;;;22.12;82.39;99963.59;5045019;28;20225;-79
2022/08/08 11:40:18;;;;;;;1.90;1.80;;;;;;;22.27;81.38;99968.09;5042081;28;20234;-80
2022/08/08 11:42:51;;;;;;;2.72;1.85;;;;;;;22.22;78.17;99962.69;5051881;28;20713;-79
2022/08/08 11:45:20;;;;;;;2.20;1.83;;;;;;;22.36;77.93;99969.91;5043782;28;20736;-80
2022/08/08 11:47:48;;;;;;;1.88;1.67;;;;;;;22.50;76.88;99972.78;5044207;28;20230;-80
2022/08/08 11:50:31;;;;;;;3.27;1.87;;;;;;;22.33;77.94;99972.41;5046091;28;20241;-80
2022/08/08 11:52:59;;;;;;;3.80;2.00;;;;;;;22.21;79.55;99972.78;5048934;28;20229;-80
2022/08/08 11:55:34;;;;;;;1.93;1.60;;;;;;;22.51;76.17;99988.06;5046901;28;20224;-80
2022/08/08 11:58:11;;;;;;;2.60;1.73;;;;;;;22.73;74.24;99982.91;5046420;28;20256;-80
2022/08/08 12:00:46;;;;;;;2.23;1.50;;;;;;;22.89;74.05;99989.03;5045134;28;20237;-79
2022/08/08 12:03:20;;;;;;;2.92;1.65;;;;;;;22.87;72.09;99983.03;5046835;28;20313;-80
2022/08/08 12:05:47;;;;;;;2.15;1.67;;;;;;;22.98;68.92;99981.81;5047309;28;20282;-80
2022/08/08 12:08:15;;;;;;;3.50;1.98;;;;;;;23.00;72.34;99992.44;5045856;28;20243;-79
2022/08/08 12:10:47;;;;;;;1.73;1.63;;;;;;;22.98;74.56;99995.47;5047788;28;20320;-79
2022/08/08 12:13:15;;;;;;;1.75;1.65;;;;;;;22.96;72.29;99994.13;5045850;28;20653;-80
2022/08/08 12:15:47;;;;;;;1.90;1.70;;;;;;;22.95;71.46;99996.06;5047155;28;20225;-81
2022/08/08 12:18:23;;;;;;;2.55;1.65;;;;;;;22.45;71.42;99991.94;5045217;28;20699;-80
2022/08/08 12:20:53;;;;;;;4.70;1.50;;;;;;;22.05;75.16;100001.34;5032535;28;20240;-80
2022/08/08 12:23:28;;;;;;;2.47;1.70;;;;;;;21.35;80.97;100003.44;5044196;28;20229;-80
2022/08/08 12:26:15;;;;;;;2.92;1.77;;;;;;;20.97;85.97;99994.06;5043630;28;20675;-80
2022/08/08 12:28:57;;;;;;;2.10;1.47;;;;;;;20.76;89.53;100006.13;5044551;28;20251;-81
2022/08/08 12:31:33;;;;;;;2.43;1.70;;;;;;;20.72;88.76;100012.41;5045807;28;20253;-81
2022/08/08 12:34:32;;;;;;;2.67;2.10;;;;;;;20.64;97.29;100005.59;5043983;28;20234;-81
2022/08/08 12:37:07;;;;;;;4.40;2.00;;;;;;;20.70;100.00;100015.41;5045984;28;20230;-79
2022/08/08 12:39:37;;;;;;;5.37;2.00;;;;;;;20.78;100.00;100012.09;5045394;28;20232;-79
2022/08/08 12:42:24;;;;;;;5.83;2.00;;;;;;;20.98;100.00;100011.22;5043915;28;20234;-82
2022/08/08 12:45:04;;;;;;;4.23;1.80;;;;;;;21.19;100.00;100014.69;5047097;28;20239;-80
2022/08/08 12:48:01;;;;;;;2.10;1.80;;;;;;;21.17;96.24;100022.34;5045417;28;20589;-80